createdAt,value
2019-04-27T00:01:59.872Z,6.90
2019-04-27T00:05:08.402Z,7.62
2019-04-27T00:08:19.899Z,6.45
2019-04-27T00:11:19.470Z,6.80
2019-04-27T00:14:18.154Z,6.72
2019-04-27T00:17:45.018Z,6.83
2019-04-27T00:20:54.355Z,7.47
2019-04-27T00:23:50.508Z,8.25
2019-04-27T00:26:46.667Z,7.30
2019-04-27T00:29:44.008Z,7.70
2019-04-27T00:32:39.946Z,9.43
2019-04-27T00:35:57.379Z,8.58
2019-04-27T00:39:05.947Z,8.28
2019-04-27T00:42:04.052Z,7.55
2019-04-27T00:45:00.539Z,8.45
2019-04-27T00:47:59.708Z,8.45
2019-04-27T00:50:55.267Z,8.80
2019-04-27T00:53:53.620Z,9.55
2019-04-27T00:56:59.674Z,7.53
2019-04-27T01:00:20.310Z,9.70
2019-04-27T01:03:23.427Z,9.18
2019-04-27T01:06:20.231Z,7.67
2019-04-27T01:09:15.831Z,7.87
2019-04-27T01:12:13.633Z,8.18
2019-04-27T01:15:10.282Z,8.50
2019-04-27T01:18:14.469Z,9.38
2019-04-27T01:21:04.751Z,8.95
2019-04-27T01:24:01.017Z,8.48
2019-04-27T01:27:15.769Z,10.03
2019-04-27T01:30:22.157Z,10.35
2019-04-27T01:33:19.789Z,10.40
2019-04-27T01:36:16.389Z,10.08
2019-04-27T01:39:14.619Z,10.10
2019-04-27T01:42:15.358Z,10.18
2019-04-27T01:45:11.260Z,10.28
2019-04-27T01:48:22.521Z,9.60
2019-04-27T01:51:09.345Z,8.70
2019-04-27T01:54:08.245Z,9.05
2019-04-27T01:57:04.358Z,9.55
2019-04-27T02:00:00.130Z,10.32
2019-04-27T02:02:59.520Z,9.58
2019-04-27T02:05:59.363Z,9.95
2019-04-27T02:08:56.259Z,9.93
2019-04-27T02:11:52.765Z,8.95
2019-04-27T02:14:50.287Z,10.13
2019-04-27T02:17:46.812Z,9.53
2019-04-27T02:20:44.444Z,8.25
2019-04-27T02:23:42.067Z,9.58
2019-04-27T02:26:39.740Z,9.85
2019-04-27T02:29:45.808Z,7.95
2019-04-27T02:33:03.251Z,8.85
2019-04-27T02:36:00.300Z,10.45
2019-04-27T02:38:59.598Z,8.38
2019-04-27T02:41:59.935Z,9.13
2019-04-27T02:44:55.396Z,7.97
2019-04-27T02:47:52.632Z,9.68
2019-04-27T02:50:51.199Z,7.83
2019-04-27T02:54:00.505Z,12.05
2019-04-27T02:56:59.198Z,8.78
2019-04-27T02:59:54.367Z,10.60
2019-04-27T03:02:55.619Z,8.28
2019-04-27T03:05:51.480Z,11.22
2019-04-27T03:08:52.722Z,9.73
2019-04-27T03:11:44.923Z,9.35
2019-04-27T03:14:53.669Z,10.23
2019-04-27T03:18:09.888Z,8.48
2019-04-27T03:21:12.777Z,9.38
2019-04-27T03:24:07.149Z,9.90
2019-04-27T03:27:05.243Z,11.08
2019-04-27T03:30:00.978Z,10.80
2019-04-27T03:32:58.824Z,12.30
2019-04-27T03:35:53.825Z,10.28
2019-04-27T03:38:49.991Z,13.18
2019-04-27T03:41:46.495Z,11.93
2019-04-27T03:44:42.983Z,12.20
2019-04-27T03:47:40.672Z,10.43
2019-04-27T03:50:42.931Z,12.70
2019-04-27T03:53:43.012Z,12.93
2019-04-27T03:56:45.050Z,13.53
2019-04-27T04:00:00.746Z,12.75
2019-04-27T04:02:57.064Z,14.63
2019-04-27T04:05:53.524Z,10.53
2019-04-27T04:08:52.947Z,14.23
2019-04-27T04:11:54.067Z,11.90
2019-04-27T04:14:49.501Z,12.75
2019-04-27T04:17:46.003Z,15.35
2019-04-27T04:20:42.281Z,12.93
2019-04-27T04:23:40.252Z,13.60
2019-04-27T04:26:35.725Z,13.10
2019-04-27T04:29:32.195Z,14.15
2019-04-27T04:32:29.748Z,13.65
2019-04-27T04:35:26.737Z,16.52
2019-04-27T04:38:22.912Z,14.03
2019-04-27T04:41:26.794Z,14.98
2019-04-27T04:44:40.050Z,12.68
2019-04-27T04:47:53.484Z,16.73
2019-04-27T04:50:50.303Z,15.75
2019-04-27T04:53:48.881Z,13.00
2019-04-27T04:56:45.292Z,15.98
2019-04-27T04:59:43.737Z,14.83
2019-04-27T05:02:39.801Z,15.23
2019-04-27T05:05:36.614Z,16.85
2019-04-27T05:08:33.121Z,14.45
2019-04-27T05:11:29.719Z,16.10
2019-04-27T05:14:26.281Z,14.15
2019-04-27T05:17:22.223Z,16.65
2019-04-27T05:20:29.503Z,15.53
2019-04-27T05:23:25.103Z,11.73
2019-04-27T05:26:21.464Z,13.65
2019-04-27T05:29:18.919Z,13.72
2019-04-27T05:32:14.595Z,11.75
2019-04-27T05:35:11.419Z,15.78
2019-04-27T05:38:12.742Z,13.62
2019-04-27T05:41:05.408Z,12.18
2019-04-27T05:44:18.366Z,13.60
2019-04-27T05:47:22.733Z,12.28
2019-04-27T05:50:21.947Z,12.37
2019-04-27T05:53:16.574Z,12.70
2019-04-27T05:56:12.752Z,14.78
2019-04-27T05:59:09.325Z,12.07
2019-04-27T06:02:06.146Z,12.68
2019-04-27T06:05:04.040Z,13.35
2019-04-27T06:08:00.275Z,12.35
2019-04-27T06:10:56.815Z,12.90
2019-04-27T06:13:52.234Z,13.72
2019-04-27T06:16:50.945Z,12.85
2019-04-27T06:19:45.144Z,13.15
2019-04-27T06:22:40.915Z,13.60
2019-04-27T06:25:36.484Z,13.83
2019-04-27T06:28:32.939Z,13.20
2019-04-27T06:31:29.774Z,14.13
2019-04-27T06:34:26.306Z,14.93
2019-04-27T06:37:22.576Z,14.60
2019-04-27T06:40:19.163Z,13.50
2019-04-27T06:43:14.825Z,14.87
2019-04-27T06:46:10.775Z,17.25
2019-04-27T06:49:09.044Z,13.72
2019-04-27T06:52:04.826Z,15.80
2019-04-27T06:55:01.092Z,16.27
2019-04-27T06:57:58.784Z,16.17
2019-04-27T07:00:55.501Z,14.80
2019-04-27T07:03:52.174Z,14.78
2019-04-27T07:06:54.001Z,18.85
2019-04-27T07:09:46.025Z,16.85
2019-04-27T07:12:41.644Z,14.58
2019-04-27T07:15:38.773Z,14.40
2019-04-27T07:18:34.520Z,18.75
2019-04-27T07:21:31.274Z,15.95
2019-04-27T07:24:29.250Z,15.85
2019-04-27T07:27:25.511Z,17.27
2019-04-27T07:30:24.670Z,17.40
2019-04-27T07:33:20.022Z,17.60
2019-04-27T07:36:16.470Z,12.73
2019-04-27T07:39:13.156Z,13.90
2019-04-27T07:42:09.398Z,14.40
2019-04-27T07:45:15.391Z,14.90
2019-04-27T07:48:11.798Z,14.73
2019-04-27T07:51:08.906Z,13.15
2019-04-27T07:54:06.309Z,15.98
2019-04-27T07:57:02.433Z,14.73
2019-04-27T07:59:59.695Z,16.15
2019-04-27T08:02:55.777Z,18.10
2019-04-27T08:05:51.482Z,16.05
2019-04-27T08:08:46.984Z,15.32
2019-04-27T08:11:42.870Z,17.47
2019-04-27T08:14:39.101Z,19.40
2019-04-27T08:17:35.250Z,18.90
2019-04-27T08:20:30.316Z,19.33
2019-04-27T08:23:26.773Z,16.90
2019-04-27T08:26:29.214Z,17.17
2019-04-27T08:29:39.374Z,18.27
2019-04-27T08:32:41.560Z,22.27
2019-04-27T08:35:36.472Z,21.90
2019-04-27T08:38:32.713Z,18.30
2019-04-27T08:41:33.124Z,23.53
2019-04-27T08:44:31.635Z,17.93
2019-04-27T08:47:26.692Z,21.00
2019-04-27T08:50:24.469Z,18.77
2019-04-27T08:53:19.491Z,20.23
2019-04-27T08:56:15.332Z,19.43
2019-04-27T08:59:10.830Z,19.80
2019-04-27T09:02:08.637Z,18.87
2019-04-27T09:05:05.185Z,17.17
2019-04-27T09:08:29.596Z,20.07
2019-04-27T09:11:46.062Z,16.60
2019-04-27T09:14:47.148Z,17.93
2019-04-27T09:17:52.505Z,19.37
2019-04-27T09:20:54.416Z,18.70
2019-04-27T09:23:51.180Z,19.17
2019-04-27T09:26:46.778Z,18.00
2019-04-27T09:29:42.650Z,16.80
2019-04-27T09:32:40.765Z,18.50
2019-04-27T09:35:36.288Z,16.87
2019-04-27T09:38:32.861Z,16.27
2019-04-27T09:41:29.005Z,16.30
2019-04-27T09:44:26.652Z,19.87
2019-04-27T09:47:23.217Z,17.37
2019-04-27T09:50:18.818Z,18.37
2019-04-27T09:53:15.828Z,16.73
2019-04-27T09:56:13.507Z,15.90
2019-04-27T09:59:08.724Z,17.93
2019-04-27T10:02:04.308Z,16.23
2019-04-27T10:04:59.663Z,16.50
2019-04-27T10:07:56.899Z,17.57
2019-04-27T10:10:52.437Z,18.07
2019-04-27T10:13:48.648Z,17.10
2019-04-27T10:16:46.925Z,15.53
2019-04-27T10:19:42.894Z,14.30
2019-04-27T10:22:42.932Z,14.50
2019-04-27T10:25:37.449Z,16.13
2019-04-27T10:28:32.986Z,13.47
2019-04-27T10:31:29.109Z,12.40
2019-04-27T10:34:24.594Z,11.07
2019-04-27T10:37:20.405Z,10.80
2019-04-27T10:40:16.295Z,11.63
2019-04-27T10:43:12.368Z,12.60
2019-04-27T10:46:09.974Z,11.70
2019-04-27T10:49:07.400Z,11.03
2019-04-27T10:52:05.824Z,9.07
2019-04-27T10:55:00.665Z,8.97
2019-04-27T10:57:55.952Z,10.03
2019-04-27T11:00:54.163Z,13.00
2019-04-27T11:04:00.578Z,18.63
2019-04-27T11:06:59.099Z,18.27
2019-04-27T11:09:55.510Z,19.03
2019-04-27T11:12:51.565Z,18.80
2019-04-27T11:15:46.977Z,19.17
2019-04-27T11:18:43.302Z,20.23
2019-04-27T11:21:38.993Z,19.20
2019-04-27T11:24:34.667Z,18.70
2019-04-27T11:27:30.772Z,16.20
2019-04-27T11:30:26.713Z,16.20
2019-04-27T11:33:22.806Z,14.87
2019-04-27T11:36:36.689Z,12.03
2019-04-27T11:39:32.949Z,10.77
2019-04-27T11:42:28.967Z,8.83
2019-04-27T11:45:26.747Z,8.90
2019-04-27T11:48:22.381Z,8.10
2019-04-27T11:51:18.553Z,5.87
2019-04-27T11:54:15.440Z,7.63
2019-04-27T11:57:11.442Z,5.73
2019-04-27T12:00:10.283Z,4.97
2019-04-27T12:03:06.738Z,10.07
2019-04-27T12:06:02.275Z,10.70
2019-04-27T12:08:58.584Z,9.70
2019-04-27T12:11:57.448Z,6.83
2019-04-27T12:14:53.541Z,7.23
2019-04-27T12:17:51.192Z,7.50
2019-04-27T12:20:53.616Z,5.43
2019-04-27T12:23:50.715Z,6.57
2019-04-27T12:26:59.223Z,8.07
2019-04-27T12:30:09.877Z,6.90
2019-04-27T12:33:08.920Z,5.00
2019-04-27T12:36:07.878Z,5.70
2019-04-27T12:39:12.661Z,7.27
2019-04-27T12:42:11.386Z,6.77
2019-04-27T12:45:10.627Z,7.00
2019-04-27T12:48:07.685Z,7.37
2019-04-27T12:51:04.936Z,6.80
2019-04-27T12:54:32.031Z,6.57
2019-04-27T12:57:40.873Z,7.37
2019-04-27T13:00:42.046Z,6.37
2019-04-27T13:03:39.974Z,6.90
2019-04-27T13:06:36.891Z,6.43
2019-04-27T13:09:36.110Z,4.33
2019-04-27T13:12:35.700Z,5.47
2019-04-27T13:15:35.757Z,5.77
2019-04-27T13:18:32.440Z,5.87
2019-04-27T13:21:31.837Z,5.10
2019-04-27T13:24:28.443Z,5.70
2019-04-27T13:27:26.962Z,5.20
2019-04-27T13:30:25.794Z,4.87
2019-04-27T13:33:24.102Z,5.47
2019-04-27T13:36:22.356Z,5.17
2019-04-27T13:39:18.568Z,7.10
2019-04-27T13:42:13.563Z,6.97
2019-04-27T13:45:16.540Z,6.50
2019-04-27T13:48:36.828Z,6.40
2019-04-27T13:51:42.586Z,6.70
2019-04-27T13:54:37.821Z,5.33
2019-04-27T13:57:34.103Z,7.70
2019-04-27T14:00:30.339Z,4.33
2019-04-27T14:03:25.853Z,4.53
2019-04-27T14:06:21.408Z,6.83
2019-04-27T14:09:18.326Z,4.53
2019-04-27T14:12:21.164Z,6.10
2019-04-27T14:15:18.663Z,5.27
2019-04-27T14:18:14.567Z,6.23
2019-04-27T14:21:09.699Z,5.00
2019-04-27T14:24:06.928Z,4.20
2019-04-27T14:27:03.202Z,5.87
2019-04-27T14:29:59.502Z,4.77
2019-04-27T14:32:55.264Z,5.40
2019-04-27T14:35:53.869Z,6.60
2019-04-27T14:38:50.089Z,5.80
2019-04-27T14:41:45.950Z,5.30
2019-04-27T14:44:42.139Z,6.00
2019-04-27T14:47:39.953Z,5.17
2019-04-27T14:50:38.648Z,5.67
2019-04-27T14:53:38.494Z,6.67
2019-04-27T14:56:38.661Z,8.13
2019-04-27T14:59:39.412Z,6.87
2019-04-27T15:02:36.930Z,7.80
2019-04-27T15:05:33.464Z,7.83
2019-04-27T15:08:29.595Z,8.67
2019-04-27T15:11:31.442Z,9.40
2019-04-27T15:14:31.555Z,8.70
2019-04-27T15:17:30.929Z,8.43
2019-04-27T15:20:41.470Z,7.23
2019-04-27T15:23:36.259Z,7.20
2019-04-27T15:26:33.599Z,8.93
2019-04-27T15:29:33.427Z,8.80
2019-04-27T15:32:48.996Z,8.20
2019-04-27T15:35:52.638Z,8.97
2019-04-27T15:38:53.724Z,9.30
2019-04-27T15:41:54.667Z,8.73
2019-04-27T15:44:52.426Z,8.57
2019-04-27T15:47:54.554Z,8.83
2019-04-27T15:50:49.227Z,9.20
2019-04-27T15:53:50.828Z,10.20
2019-04-27T15:56:44.741Z,11.70
2019-04-27T15:59:41.138Z,12.03
2019-04-27T16:02:38.896Z,10.87
2019-04-27T16:05:37.300Z,12.77
2019-04-27T16:08:38.307Z,11.60
2019-04-27T16:11:33.277Z,10.87
2019-04-27T16:14:29.962Z,10.37
2019-04-27T16:17:30.334Z,9.57
2019-04-27T16:20:30.036Z,10.40
2019-04-27T16:23:22.765Z,9.23
2019-04-27T16:26:21.203Z,10.07
2019-04-27T16:29:23.171Z,11.63
2019-04-27T16:32:18.950Z,9.53
2019-04-27T16:35:19.632Z,9.20
2019-04-27T16:38:41.063Z,7.33
2019-04-27T16:41:38.891Z,6.83
2019-04-27T16:44:36.319Z,8.00
2019-04-27T16:47:33.068Z,6.50
2019-04-27T16:50:30.970Z,5.90
2019-04-27T16:53:30.079Z,12.60
2019-04-27T16:56:25.495Z,8.30
2019-04-27T16:59:40.617Z,6.87
2019-04-27T17:02:25.203Z,5.90
2019-04-27T17:05:20.075Z,9.70
2019-04-27T17:08:22.452Z,7.97
2019-04-27T17:12:43.271Z,7.43
2019-04-27T17:14:40.827Z,6.23
2019-04-27T17:17:47.160Z,6.77
2019-04-27T17:20:48.417Z,6.70
2019-04-27T17:23:48.179Z,7.23
2019-04-27T17:26:45.087Z,6.10
2019-04-27T17:29:42.521Z,6.67
2019-04-27T17:32:58.848Z,7.10
2019-04-27T17:35:55.689Z,4.77
2019-04-27T17:38:51.280Z,6.10
2019-04-27T17:41:50.581Z,4.17
2019-04-27T17:44:44.972Z,5.43
2019-04-27T17:47:41.156Z,5.43
2019-04-27T17:50:38.510Z,3.83
2019-04-27T17:53:34.512Z,4.53
2019-04-27T17:56:35.946Z,3.97
2019-04-27T17:59:26.970Z,3.00
2019-04-27T18:02:23.336Z,4.03
2019-04-27T18:05:18.358Z,4.07
2019-04-27T18:08:20.305Z,4.83
2019-04-27T18:11:12.989Z,3.03
2019-04-27T18:14:12.083Z,2.90
2019-04-27T18:17:08.556Z,3.60
2019-04-27T18:20:05.810Z,2.47
2019-04-27T18:23:08.880Z,2.20
2019-04-27T18:26:12.658Z,2.53
2019-04-27T18:29:08.970Z,2.30
2019-04-27T18:32:03.977Z,2.50
2019-04-27T18:35:00.317Z,2.60
2019-04-27T18:37:58.359Z,2.60
2019-04-27T18:40:54.054Z,2.85
2019-04-27T18:43:52.153Z,3.10
2019-04-27T18:46:48.773Z,4.00
2019-04-27T18:50:11.092Z,3.92
2019-04-27T18:53:04.228Z,4.40
2019-04-27T18:56:05.187Z,3.00
2019-04-27T18:58:59.954Z,3.47
2019-04-27T19:01:55.824Z,4.08
2019-04-27T19:04:51.961Z,4.08
2019-04-27T19:07:48.534Z,3.10
2019-04-27T19:10:44.955Z,3.55
2019-04-27T19:13:40.883Z,3.02
2019-04-27T19:16:38.402Z,4.30
2019-04-27T19:19:36.047Z,2.87
2019-04-27T19:22:34.691Z,2.90
2019-04-27T19:25:40.987Z,3.10
2019-04-27T19:28:58.728Z,2.37
2019-04-27T19:31:58.656Z,3.17
2019-04-27T19:34:55.281Z,3.10
2019-04-27T19:37:51.458Z,5.97
2019-04-27T19:40:47.719Z,2.58
2019-04-27T19:43:44.091Z,3.58
2019-04-27T19:46:40.390Z,4.28
2019-04-27T19:49:38.768Z,3.22
2019-04-27T19:52:35.423Z,3.77
2019-04-27T19:55:33.007Z,4.90
2019-04-27T19:58:35.308Z,3.22
2019-04-27T20:01:36.282Z,3.52
2019-04-27T20:04:34.048Z,2.40
2019-04-27T20:07:30.482Z,3.47
2019-04-27T20:10:26.717Z,4.55
2019-04-27T20:13:23.460Z,3.12
2019-04-27T20:16:20.743Z,2.58
2019-04-27T20:19:17.438Z,3.70
2019-04-27T20:22:13.989Z,5.08
2019-04-27T20:25:11.201Z,3.80
2019-04-27T20:28:09.779Z,4.42
2019-04-27T20:31:06.301Z,4.42
2019-04-27T20:34:01.727Z,5.33
2019-04-27T20:36:57.841Z,4.33
2019-04-27T20:39:54.468Z,5.15
2019-04-27T20:42:51.617Z,3.67
2019-04-27T20:45:48.017Z,3.40
2019-04-27T20:48:44.491Z,3.98
2019-04-27T20:51:58.416Z,5.45
2019-04-27T20:54:54.800Z,4.65
2019-04-27T20:57:59.592Z,7.28
2019-04-27T21:00:47.440Z,4.92
2019-04-27T21:03:51.075Z,5.85
2019-04-27T21:06:51.006Z,10.00
2019-04-27T21:09:47.686Z,6.05
2019-04-27T21:12:43.983Z,6.92
2019-04-27T21:15:41.908Z,6.90
2019-04-27T21:18:38.343Z,5.58
2019-04-27T21:21:35.117Z,7.22
2019-04-27T21:24:31.301Z,6.17
2019-04-27T21:27:26.698Z,4.70
2019-04-27T21:30:22.302Z,4.22
2019-04-27T21:33:18.800Z,3.83
2019-04-27T21:36:16.716Z,4.33
2019-04-27T21:39:12.790Z,3.52
2019-04-27T21:42:11.011Z,3.45
2019-04-27T21:45:07.742Z,5.65
2019-04-27T21:48:04.184Z,3.75
2019-04-27T21:51:01.530Z,3.17
2019-04-27T21:54:11.513Z,2.45
2019-04-27T21:57:07.044Z,2.05
2019-04-27T22:00:05.432Z,3.20
2019-04-27T22:03:02.804Z,2.58
2019-04-27T22:05:59.098Z,1.65
2019-04-27T22:08:54.775Z,3.47
2019-04-27T22:11:51.156Z,1.57
2019-04-27T22:14:47.533Z,1.50
2019-04-27T22:17:43.909Z,1.52
2019-04-27T22:20:42.410Z,1.22
2019-04-27T22:23:43.740Z,0.78
2019-04-27T22:26:39.246Z,1.17
2019-04-27T22:29:35.526Z,1.25
2019-04-27T22:32:32.834Z,1.00
2019-04-27T22:35:31.148Z,0.70
2019-04-27T22:38:27.323Z,2.60
2019-04-27T22:41:46.624Z,1.65
2019-04-27T22:44:45.704Z,1.40
2019-04-27T22:47:42.199Z,2.77
2019-04-27T22:50:38.460Z,4.03
2019-04-27T22:53:34.695Z,2.00
2019-04-27T22:56:32.141Z,1.52
2019-04-27T22:59:46.036Z,3.98
2019-04-27T23:02:46.332Z,2.55
2019-04-27T23:05:43.118Z,3.62
2019-04-27T23:08:38.967Z,5.45
2019-04-27T23:11:35.936Z,1.47
2019-04-27T23:14:32.514Z,1.75
2019-04-27T23:17:47.050Z,3.52
2019-04-27T23:20:43.578Z,3.08
2019-04-27T23:23:41.209Z,1.72
2019-04-27T23:26:37.464Z,2.80
2019-04-27T23:29:33.798Z,2.95
2019-04-27T23:32:36.817Z,2.25
2019-04-27T23:35:33.335Z,1.87
2019-04-27T23:38:32.099Z,1.87
2019-04-27T23:41:28.542Z,1.72
2019-04-27T23:44:25.032Z,1.77
2019-04-27T23:47:20.410Z,1.62
2019-04-27T23:50:16.906Z,1.50
2019-04-27T23:53:17.355Z,3.45
2019-04-27T23:56:13.194Z,2.02
2019-04-27T23:59:08.811Z,2.37
